TimeMDT,TemperatureF,Dew PointF,Humidity,Sea Level PressureIn,VisibilityMPH,Wind Direction,Wind SpeedMPH,Gust SpeedMPH,PrecipitationIn,Events,Conditions,WindDirDegrees,DateUTC
12:53 AM,57.9,55.0,90,30.06,10.0,Calm,Calm,-,N/A,,Partly Cloudy,0,2013-08-10 06:53:00
1:53 AM,55.9,53.1,90,30.08,10.0,Calm,Calm,-,N/A,,Clear,0,2013-08-10 07:53:00
2:53 AM,53.1,50.0,89,30.07,10.0,Calm,Calm,-,N/A,,Clear,0,2013-08-10 08:53:00
3:53 AM,52.0,50.0,93,30.06,10.0,WSW,3.5,-,N/A,,Clear,250,2013-08-10 09:53:00
4:53 AM,51.1,48.9,92,30.05,10.0,West,3.5,-,N/A,,Clear,270,2013-08-10 10:53:00
5:53 AM,50.0,48.0,93,30.06,10.0,SSE,4.6,-,N/A,,Clear,160,2013-08-10 11:53:00
6:53 AM,53.1,48.9,86,30.06,10.0,Calm,Calm,-,N/A,,Clear,0,2013-08-10 12:53:00
7:53 AM,60.1,53.1,78,30.05,10.0,Calm,Calm,-,N/A,,Clear,0,2013-08-10 13:53:00
8:53 AM,64.0,55.9,75,30.06,10.0,Calm,Calm,-,N/A,,Clear,0,2013-08-10 14:53:00
9:53 AM,70.0,55.0,59,30.04,10.0,North,3.5,-,N/A,,Clear,350,2013-08-10 15:53:00
10:53 AM,75.9,54.0,46,30.02,10.0,NE,4.6,-,N/A,,Clear,50,2013-08-10 16:53:00
11:53 AM,80.1,48.9,34,30.01,10.0,East,6.9,-,N/A,,Clear,80,2013-08-10 17:53:00
12:53 PM,82.9,48.0,29,30.00,10.0,Variable,3.5,-,N/A,,Clear,0,2013-08-10 18:53:00
1:53 PM,82.0,48.9,31,29.99,10.0,Variable,4.6,-,N/A,,Clear,0,2013-08-10 19:53:00
2:53 PM,80.1,50.0,35,29.98,10.0,Calm,Calm,-,N/A,,Partly Cloudy,0,2013-08-10 20:53:00
3:53 PM,79.0,52.0,39,29.98,10.0,NNW,4.6,-,N/A,,Clear,330,2013-08-10 21:53:00
4:00 PM,78.8,53.6,42,30.06,10.0,WNW,6.9,-,N/A,Thunderstorm,Clear,300,2013-08-10 22:00:00
4:15 PM,77.0,51.8,41,30.06,10.0,West,8.1,-,N/A,,Clear,260,2013-08-10 22:15:00
4:53 PM,75.0,52.0,44,30.01,10.0,SSW,9.2,-,N/A,,Mostly Cloudy,210,2013-08-10 22:53:00
5:40 PM,78.8,44.6,30,30.06,10.0,WSW,13.8,27.6,N/A,Thunderstorm,Partly Cloudy,240,2013-08-10 23:40:00
5:53 PM,77.0,45.0,32,30.01,10.0,West,12.7,18.4,N/A,Thunderstorm,Clear,280,2013-08-10 23:53:00
6:07 PM,75.2,44.6,34,30.08,10.0,WSW,10.4,-,N/A,,Clear,240,2013-08-11 00:07:00
6:53 PM,75.0,46.9,37,30.02,10.0,West,11.5,-,N/A,,Partly Cloudy,280,2013-08-11 00:53:00
7:53 PM,73.9,45.0,35,29.99,10.0,WSW,9.2,-,N/A,,Clear,240,2013-08-11 01:53:00
8:53 PM,69.1,46.9,45,30.01,10.0,WNW,6.9,-,N/A,,Clear,300,2013-08-11 02:53:00
9:53 PM,60.1,48.0,64,30.01,10.0,South,12.7,-,N/A,,Clear,190,2013-08-11 03:53:00
10:53 PM,63.0,46.9,56,30.01,10.0,North,3.5,-,N/A,,Clear,10,2013-08-11 04:53:00
11:53 PM,60.1,46.9,62,30.02,10.0,WSW,8.1,-,N/A,,Clear,250,2013-08-11 05:53:00